createdAt,value
2022-11-02T00:01:27.697Z,38.40
2022-11-02T00:03:55.004Z,34.40
2022-11-02T00:06:21.978Z,37.40
2022-11-02T00:08:48.965Z,34.27
2022-11-02T00:11:15.966Z,42.37
2022-11-02T00:13:42.900Z,33.50
2022-11-02T00:16:14.911Z,35.57
2022-11-02T00:18:45.567Z,36.47
2022-11-02T00:30:02.270Z,36.03
2022-11-02T00:32:29.188Z,32.40
2022-11-02T00:34:56.087Z,30.03
2022-11-02T00:37:23.113Z,31.37
2022-11-02T00:39:50.253Z,29.40
2022-11-02T00:42:17.288Z,29.20
2022-11-02T00:44:47.104Z,28.50
2022-11-02T00:47:14.154Z,30.13
2022-11-02T00:49:41.115Z,30.33
2022-11-02T00:52:08.218Z,33.77
2022-11-02T00:54:35.618Z,29.67
2022-11-02T00:57:02.876Z,31.90
2022-11-02T00:59:29.993Z,35.33
2022-11-02T01:01:57.144Z,31.03
2022-11-02T01:04:24.419Z,31.23
2022-11-02T01:06:51.409Z,30.53
2022-11-02T01:09:18.648Z,28.97
2022-11-02T01:11:45.713Z,28.27
2022-11-02T01:14:12.773Z,27.27
2022-11-02T01:19:13.488Z,31.70
2022-11-02T01:21:40.805Z,32.87
2022-11-02T01:24:08.638Z,32.77
2022-11-02T01:26:35.688Z,35.93
2022-11-02T01:29:02.734Z,33.17
2022-11-02T01:31:29.718Z,35.87
2022-11-02T01:33:56.653Z,30.17
2022-11-02T01:36:24.051Z,41.93
2022-11-02T01:59:54.731Z,36.60
2022-11-02T02:02:25.277Z,41.03
2022-11-02T02:04:59.851Z,35.77
2022-11-02T02:07:47.802Z,35.50
2022-11-02T02:10:15.542Z,34.90
2022-11-02T02:12:44.077Z,33.60
2022-11-02T02:15:13.141Z,29.57
2022-11-02T02:18:07.405Z,31.80
2022-11-02T02:21:11.333Z,38.93
2022-11-02T02:24:05.973Z,31.70
2022-11-02T02:27:08.902Z,27.80
2022-11-02T02:30:07.791Z,29.83
2022-11-02T02:33:27.861Z,26.60
2022-11-02T02:36:04.636Z,29.80
2022-11-02T02:38:44.894Z,34.93
2022-11-02T02:41:13.999Z,33.43
2022-11-02T02:43:47.621Z,30.13
2022-11-02T02:46:26.038Z,29.33
2022-11-02T02:48:57.521Z,25.37
2022-11-02T02:51:32.264Z,30.30
2022-11-02T02:54:05.164Z,25.90
2022-11-02T02:59:41.335Z,31.20
2022-11-02T03:02:32.839Z,25.00
2022-11-02T03:05:00.263Z,24.77
2022-11-02T03:07:33.917Z,27.00
2022-11-02T03:10:20.741Z,29.03
2022-11-02T03:13:11.626Z,33.27
2022-11-02T03:15:52.031Z,28.90
2022-11-02T03:18:38.952Z,22.87
2022-11-02T03:21:44.763Z,29.50
2022-11-02T03:24:16.632Z,23.70
2022-11-02T03:27:12.513Z,25.00
2022-11-02T03:29:44.491Z,24.90
2022-11-02T03:33:14.075Z,22.90
2022-11-02T03:35:57.242Z,22.57
2022-11-02T03:39:05.157Z,27.63
2022-11-02T03:41:35.081Z,24.57
2022-11-02T03:44:09.276Z,24.77
2022-11-02T03:46:40.882Z,37.57
2022-11-02T03:49:13.066Z,35.93
2022-11-02T03:51:45.371Z,46.83
2022-11-02T03:54:50.736Z,45.53
2022-11-02T03:57:29.602Z,49.47
2022-11-02T04:00:24.792Z,48.70
2022-11-02T04:02:57.912Z,50.20
2022-11-02T04:05:30.811Z,41.87
2022-11-02T04:08:17.396Z,37.90
2022-11-02T04:11:03.252Z,38.97
2022-11-02T04:13:49.178Z,51.10
2022-11-02T04:16:17.311Z,37.07
2022-11-02T04:19:03.036Z,45.93
2022-11-02T04:21:31.097Z,43.87
2022-11-02T04:24:17.446Z,39.80
2022-11-02T04:26:44.436Z,56.60
2022-11-02T04:29:12.241Z,39.53
2022-11-02T04:31:39.282Z,46.87
2022-11-02T04:34:06.253Z,43.47
2022-11-02T04:36:33.691Z,55.63
2022-11-02T04:39:00.616Z,41.30
2022-11-02T04:41:43.424Z,51.63
2022-11-02T04:44:15.168Z,46.13
2022-11-02T04:46:44.286Z,40.80
2022-11-02T04:49:12.846Z,54.30
2022-11-02T04:51:43.318Z,48.93
2022-11-02T04:54:12.817Z,59.90
2022-11-02T04:56:39.756Z,46.30
2022-11-02T04:59:06.716Z,47.70
2022-11-02T05:01:33.874Z,39.33
2022-11-02T05:04:01.011Z,46.07
2022-11-02T05:06:28.006Z,38.67
2022-11-02T05:08:56.191Z,38.20
2022-11-02T05:11:23.150Z,45.40
2022-11-02T05:13:50.172Z,37.60
2022-11-02T05:16:17.831Z,36.80
2022-11-02T05:18:44.852Z,36.37
2022-11-02T05:21:13.031Z,40.30
2022-11-02T05:23:40.181Z,32.77
2022-11-02T05:26:12.172Z,32.33
2022-11-02T05:28:39.366Z,34.63
2022-11-02T05:31:07.303Z,29.87
2022-11-02T05:33:35.722Z,29.80
2022-11-02T05:36:03.276Z,40.10
2022-11-02T05:38:30.592Z,35.10
2022-11-02T05:41:00.733Z,28.47
2022-11-02T05:43:28.428Z,30.23
2022-11-02T05:46:01.387Z,32.00
2022-11-02T05:48:32.674Z,27.40
2022-11-02T05:51:04.602Z,29.17
2022-11-02T05:53:34.220Z,25.33
2022-11-02T05:56:03.313Z,26.47
2022-11-02T05:58:30.829Z,30.77
2022-11-02T06:01:02.987Z,30.77
2022-11-02T06:03:32.412Z,31.70
2022-11-02T06:06:05.878Z,27.70
2022-11-02T06:08:37.971Z,25.47
2022-11-02T06:11:11.166Z,27.83
2022-11-02T06:13:39.607Z,25.43
2022-11-02T06:16:09.706Z,27.10
2022-11-02T06:18:38.147Z,26.57
2022-11-02T06:21:05.683Z,26.23
2022-11-02T06:23:32.637Z,27.30
2022-11-02T06:26:01.179Z,28.40
2022-11-02T06:28:29.896Z,31.53
2022-11-02T06:30:57.638Z,32.80
2022-11-02T06:33:24.656Z,32.97
2022-11-02T06:35:53.980Z,34.87
2022-11-02T06:38:21.452Z,36.50
2022-11-02T06:41:00.350Z,36.77
2022-11-02T06:43:27.424Z,31.70
2022-11-02T06:45:56.416Z,34.87
2022-11-02T06:48:26.505Z,27.93
2022-11-02T06:50:57.561Z,35.17
2022-11-02T06:53:24.957Z,27.60
2022-11-02T06:55:56.972Z,31.20
2022-11-02T06:58:25.103Z,30.90
2022-11-02T07:01:02.196Z,33.07
2022-11-02T07:03:30.363Z,32.37
2022-11-02T07:05:58.582Z,33.17
2022-11-02T07:08:27.539Z,31.63
2022-11-02T07:10:55.472Z,27.13
2022-11-02T07:13:23.004Z,30.10
2022-11-02T07:15:54.863Z,32.17
2022-11-02T07:18:23.064Z,28.87
2022-11-02T07:20:50.184Z,32.50
2022-11-02T07:23:17.142Z,31.77
2022-11-02T07:25:44.126Z,39.43
2022-11-02T07:28:11.056Z,37.80
2022-11-02T07:30:38.269Z,43.97
2022-11-02T07:33:05.503Z,39.63
2022-11-02T07:35:34.408Z,39.07
2022-11-02T07:38:07.758Z,35.13
2022-11-02T07:40:36.381Z,33.47
2022-11-02T07:43:04.619Z,33.10
2022-11-02T07:45:32.646Z,38.53
2022-11-02T07:47:59.563Z,29.10
2022-11-02T07:50:30.212Z,32.90
2022-11-02T07:52:59.043Z,27.00
2022-11-02T07:55:30.168Z,30.27
2022-11-02T07:58:02.256Z,27.20
2022-11-02T08:00:37.710Z,26.23
2022-11-02T08:03:07.778Z,27.80
2022-11-02T08:05:38.607Z,25.33
2022-11-02T08:08:13.343Z,26.40
2022-11-02T08:10:41.071Z,24.00
2022-11-02T08:13:16.192Z,24.97
2022-11-02T08:15:43.429Z,23.97
2022-11-02T08:18:16.427Z,22.30
2022-11-02T08:20:46.020Z,21.27
2022-11-02T08:23:16.003Z,26.43
2022-11-02T08:25:45.913Z,22.77
2022-11-02T08:28:17.120Z,29.13
2022-11-02T08:30:44.132Z,19.90
2022-11-02T08:33:15.611Z,23.90
2022-11-02T08:35:45.316Z,21.27
2022-11-02T08:38:12.987Z,20.27
2022-11-02T08:40:41.643Z,23.60
2022-11-02T08:43:14.575Z,18.70
2022-11-02T08:48:32.147Z,21.87
2022-11-02T08:50:59.691Z,21.67
2022-11-02T08:53:26.923Z,18.70
2022-11-02T08:55:57.696Z,17.40
2022-11-02T08:58:24.718Z,16.80
2022-11-02T09:00:53.947Z,14.77
2022-11-02T09:03:26.125Z,14.83
2022-11-02T09:06:02.201Z,14.43
2022-11-02T09:08:30.470Z,16.30
2022-11-02T09:11:03.379Z,13.80
2022-11-02T09:13:31.620Z,13.63
2022-11-02T09:16:00.172Z,13.40
2022-11-02T09:18:28.069Z,11.70
2022-11-02T09:20:55.200Z,9.87
2022-11-02T09:23:23.531Z,10.23
2022-11-02T09:25:51.257Z,9.97
2022-11-02T09:28:18.745Z,10.40
2022-11-02T09:30:46.274Z,9.27
2022-11-02T09:33:13.715Z,9.50
2022-11-02T09:35:44.776Z,9.33
2022-11-02T09:38:13.348Z,8.57
2022-11-02T09:41:05.391Z,8.40
2022-11-02T09:44:02.992Z,8.13
2022-11-02T09:46:40.270Z,8.37
2022-11-02T09:49:17.939Z,8.40
2022-11-02T09:51:53.301Z,7.00
2022-11-02T09:54:55.022Z,11.40
2022-11-02T09:57:30.643Z,7.30
2022-11-02T09:59:58.252Z,12.70
2022-11-02T10:03:07.627Z,8.27
2022-11-02T10:05:39.951Z,7.73
2022-11-02T10:08:43.951Z,8.63
2022-11-02T10:11:23.329Z,10.70
2022-11-02T10:14:24.758Z,8.50
2022-11-02T10:17:19.449Z,7.83
2022-11-02T10:20:00.641Z,8.10
2022-11-02T10:22:38.572Z,7.10
2022-11-02T10:25:08.248Z,10.30
2022-11-02T10:27:40.299Z,7.17
2022-11-02T10:30:20.560Z,9.20
2022-11-02T10:32:56.436Z,6.90
2022-11-02T10:35:57.597Z,6.97
2022-11-02T10:38:40.787Z,11.47
2022-11-02T10:41:24.256Z,9.10
2022-11-02T10:44:35.513Z,4.90
2022-11-02T10:47:20.411Z,2.77
2022-11-02T10:50:28.814Z,2.57
2022-11-02T10:53:27.202Z,2.83
2022-11-02T10:56:10.544Z,3.60
2022-11-02T10:58:46.270Z,3.23
2022-11-02T11:01:13.872Z,4.90
2022-11-02T11:04:04.909Z,3.83
2022-11-02T11:06:41.657Z,9.20
2022-11-02T11:09:23.869Z,5.00
2022-11-02T11:12:20.948Z,3.20
2022-11-02T11:20:36.925Z,6.50
2022-11-02T11:23:26.068Z,4.60
2022-11-02T11:26:04.677Z,6.53
2022-11-02T11:28:58.031Z,6.67
2022-11-02T11:31:26.168Z,3.83
2022-11-02T11:33:57.526Z,4.40
2022-11-02T11:36:33.378Z,4.40
2022-11-02T11:39:20.783Z,5.37
2022-11-02T11:41:48.031Z,3.77
2022-11-02T11:44:16.518Z,4.03
2022-11-02T11:46:53.496Z,4.87
2022-11-02T11:50:02.918Z,3.33
2022-11-02T11:52:31.909Z,4.63
2022-11-02T11:55:03.417Z,3.03
2022-11-02T11:57:35.100Z,2.33
2022-11-02T12:00:27.659Z,4.17
2022-11-02T12:03:14.555Z,4.63
2022-11-02T12:06:20.857Z,2.73
2022-11-02T12:09:28.651Z,3.17
2022-11-02T12:12:32.654Z,6.57
2022-11-02T12:15:09.917Z,2.93
2022-11-02T12:18:01.093Z,2.63
2022-11-02T12:20:58.396Z,3.43
2022-11-02T12:24:02.097Z,4.47
2022-11-02T12:26:38.039Z,3.67
2022-11-02T12:29:39.103Z,2.70
2022-11-02T12:32:28.906Z,2.27
2022-11-02T12:35:23.125Z,6.43
2022-11-02T12:38:07.603Z,2.83
2022-11-02T12:41:08.120Z,5.97
2022-11-02T12:43:43.567Z,4.83
2022-11-02T12:46:48.884Z,1.97
2022-11-02T12:50:12.409Z,5.03
2022-11-02T12:53:44.118Z,4.20
2022-11-02T12:56:29.886Z,5.93
2022-11-02T12:58:57.144Z,4.07
2022-11-02T13:01:42.330Z,4.90
2022-11-02T13:04:37.002Z,3.83
2022-11-02T13:07:15.912Z,3.73
2022-11-02T13:10:08.127Z,3.37
2022-11-02T13:12:38.532Z,5.00
2022-11-02T13:15:11.947Z,3.27
2022-11-02T13:17:55.083Z,3.57
2022-11-02T13:20:49.943Z,6.60
2022-11-02T13:23:47.446Z,3.13
2022-11-02T13:26:38.040Z,6.23
2022-11-02T13:29:23.746Z,2.90
2022-11-02T13:32:09.527Z,4.17
2022-11-02T13:34:41.556Z,3.50
2022-11-02T13:37:17.290Z,4.73
2022-11-02T13:39:56.867Z,4.60
2022-11-02T13:42:54.429Z,10.87
2022-11-02T13:45:52.442Z,4.00
2022-11-02T13:48:41.741Z,3.43
2022-11-02T13:51:26.498Z,4.20
2022-11-02T13:54:01.404Z,2.93
2022-11-02T13:56:30.381Z,6.77
2022-11-02T13:59:08.791Z,3.10
2022-11-02T14:01:40.887Z,3.50
2022-11-02T14:04:15.464Z,5.07
2022-11-02T14:06:58.295Z,3.33
2022-11-02T14:09:40.091Z,2.27
2022-11-02T14:12:27.447Z,2.83
2022-11-02T14:15:12.833Z,3.60
2022-11-02T14:17:55.391Z,2.97
2022-11-02T14:20:40.146Z,5.07
2022-11-02T14:23:14.391Z,4.23
2022-11-02T14:25:54.281Z,3.33
2022-11-02T14:28:21.460Z,3.43
2022-11-02T14:31:17.313Z,3.90
2022-11-02T14:33:56.581Z,6.70
2022-11-02T14:37:00.902Z,4.80
2022-11-02T14:40:08.292Z,3.47
2022-11-02T14:43:04.955Z,5.17
2022-11-02T14:45:51.714Z,5.50
2022-11-02T14:48:18.749Z,4.00
2022-11-02T14:51:04.862Z,8.10
2022-11-02T14:53:36.500Z,3.50
2022-11-02T14:56:04.423Z,6.73
2022-11-02T14:58:42.006Z,6.90
2022-11-02T15:01:14.876Z,5.80
2022-11-02T15:03:43.028Z,5.13
2022-11-02T15:06:23.913Z,4.07
2022-11-02T15:09:01.707Z,3.67
2022-11-02T15:11:52.145Z,7.27
2022-11-02T15:14:39.997Z,3.30
2022-11-02T15:17:12.895Z,5.00
2022-11-02T15:19:46.778Z,5.97
2022-11-02T15:22:31.867Z,4.10
2022-11-02T15:25:09.706Z,10.17
2022-11-02T15:27:38.665Z,4.73
2022-11-02T15:30:07.843Z,3.30
2022-11-02T15:32:42.656Z,4.70
2022-11-02T15:35:23.381Z,6.23
2022-11-02T15:38:16.349Z,6.40
2022-11-02T15:40:56.637Z,7.90
2022-11-02T15:43:41.562Z,11.73
2022-11-02T15:46:42.584Z,7.07
2022-11-02T15:49:34.883Z,6.50
2022-11-02T15:53:21.731Z,7.20
2022-11-02T15:55:59.853Z,15.07
2022-11-02T15:59:07.404Z,10.57
2022-11-02T16:01:34.888Z,17.90
2022-11-02T16:04:06.218Z,43.70
2022-11-02T16:06:40.413Z,24.57
2022-11-02T16:09:28.934Z,23.40
2022-11-02T16:12:24.072Z,77.80
2022-11-02T16:14:58.637Z,22.23
2022-11-02T16:17:27.318Z,10.80
2022-11-02T16:20:16.226Z,18.73
2022-11-02T16:23:01.351Z,15.70
2022-11-02T16:25:45.022Z,20.60
2022-11-02T16:28:32.257Z,10.13
2022-11-02T16:31:18.624Z,16.60
2022-11-02T16:34:00.026Z,8.93
2022-11-02T16:36:38.066Z,19.17
2022-11-02T16:39:38.802Z,27.70
2022-11-02T16:42:18.191Z,26.33
2022-11-02T16:44:59.416Z,20.40
2022-11-02T16:47:38.338Z,14.70
2022-11-02T16:50:19.797Z,11.40
2022-11-02T16:52:55.548Z,13.17
2022-11-02T16:55:44.332Z,17.80
2022-11-02T16:58:37.842Z,17.93
2022-11-02T17:01:08.268Z,14.43
2022-11-02T17:03:35.624Z,16.77
2022-11-02T17:06:06.460Z,21.37
2022-11-02T17:08:37.207Z,20.50
2022-11-02T17:11:15.711Z,15.50
2022-11-02T17:13:55.969Z,17.80
2022-11-02T17:16:23.067Z,23.60
2022-11-02T17:18:51.715Z,19.07
2022-11-02T17:21:28.891Z,24.93
2022-11-02T17:23:58.746Z,13.77
2022-11-02T17:26:30.794Z,18.50
2022-11-02T17:29:27.080Z,20.97
2022-11-02T17:31:57.410Z,12.27
2022-11-02T17:34:25.954Z,13.70
2022-11-02T17:36:53.341Z,15.03
2022-11-02T17:39:21.565Z,11.17
2022-11-02T17:42:14.823Z,10.17
2022-11-02T17:44:42.374Z,10.93
2022-11-02T17:47:13.137Z,16.00
2022-11-02T17:49:40.306Z,11.30
2022-11-02T17:52:10.213Z,17.77
2022-11-02T17:54:37.383Z,12.17
2022-11-02T17:57:13.016Z,16.30
2022-11-02T17:59:40.014Z,21.37
2022-11-02T18:02:15.495Z,22.70
2022-11-02T18:07:11.183Z,12.90
2022-11-02T18:09:38.485Z,17.57
2022-11-02T18:12:05.656Z,13.33
2022-11-02T18:14:32.662Z,13.80
2022-11-02T18:16:59.838Z,16.30
2022-11-02T18:19:28.330Z,14.20
2022-11-02T18:21:55.429Z,13.83
2022-11-02T18:24:24.008Z,15.10
2022-11-02T18:26:51.083Z,13.10
2022-11-02T18:29:18.473Z,19.13
2022-11-02T18:31:45.412Z,16.50
2022-11-02T18:34:12.761Z,13.77
2022-11-02T18:36:41.389Z,13.90
2022-11-02T18:39:08.376Z,12.53
2022-11-02T18:41:37.170Z,14.47
2022-11-02T18:44:13.536Z,19.43
2022-11-02T18:46:42.297Z,12.33
2022-11-02T18:49:09.746Z,13.87
2022-11-02T18:51:37.264Z,11.10
2022-11-02T18:54:06.529Z,13.30
2022-11-02T18:56:33.748Z,17.53
2022-11-02T18:59:01.546Z,21.13
2022-11-02T19:01:29.162Z,14.30
2022-11-02T19:03:59.139Z,13.77
2022-11-02T19:06:51.816Z,18.13
2022-11-02T19:09:32.157Z,13.97
2022-11-02T19:12:20.707Z,12.43
2022-11-02T19:14:54.134Z,18.03
2022-11-02T19:17:31.771Z,23.23
2022-11-02T19:20:06.045Z,14.90
2022-11-02T19:22:34.286Z,17.63
2022-11-02T19:25:02.833Z,25.00
2022-11-02T19:27:32.822Z,15.90
2022-11-02T19:30:04.112Z,16.23
2022-11-02T19:32:39.484Z,12.80
2022-11-02T19:35:06.835Z,13.80
2022-11-02T19:37:37.125Z,17.53
2022-11-02T19:40:05.562Z,12.10
2022-11-02T19:42:40.024Z,13.37
2022-11-02T19:45:08.047Z,14.10
2022-11-02T19:47:43.886Z,12.73
2022-11-02T19:50:12.390Z,14.17
2022-11-02T19:52:39.406Z,14.70
2022-11-02T19:55:08.744Z,17.83
2022-11-02T19:57:39.371Z,13.47
2022-11-02T20:00:09.116Z,21.53
2022-11-02T20:02:37.257Z,17.90
2022-11-02T20:05:06.515Z,23.23
2022-11-02T20:07:38.217Z,19.03
2022-11-02T20:10:05.714Z,18.97
2022-11-02T20:12:44.401Z,23.43
2022-11-02T20:15:25.392Z,25.90
2022-11-02T20:18:18.482Z,28.30
2022-11-02T20:21:02.713Z,23.93
2022-11-02T20:23:30.386Z,17.53
2022-11-02T20:26:10.917Z,15.57
2022-11-02T20:28:47.941Z,11.50
2022-11-02T20:31:20.481Z,16.00
2022-11-02T20:33:49.230Z,15.77
2022-11-02T20:36:17.162Z,17.70
2022-11-02T20:38:45.649Z,23.17
2022-11-02T20:41:19.080Z,22.83
2022-11-02T20:43:49.245Z,13.60
2022-11-02T20:46:39.084Z,10.23
2022-11-02T20:49:21.227Z,13.50
2022-11-02T20:51:53.142Z,14.80
2022-11-02T20:54:22.958Z,11.73
2022-11-02T20:56:52.309Z,10.10
2022-11-02T20:59:19.767Z,13.37
2022-11-02T21:01:48.929Z,14.20
2022-11-02T21:04:20.920Z,15.90
2022-11-02T21:06:50.270Z,10.67
2022-11-02T21:09:19.037Z,10.97
2022-11-02T21:12:04.888Z,9.10
2022-11-02T21:14:32.627Z,17.07
2022-11-02T21:16:59.940Z,12.27
2022-11-02T21:19:26.943Z,10.77
2022-11-02T21:21:59.147Z,13.87
2022-11-02T21:24:27.274Z,12.60
2022-11-02T21:26:54.296Z,10.97
2022-11-02T21:29:21.864Z,12.03
2022-11-02T21:31:49.292Z,15.57
2022-11-02T21:34:16.473Z,11.27
2022-11-02T21:36:43.396Z,9.93
2022-11-02T21:39:10.422Z,21.97
2022-11-02T21:41:39.107Z,10.87
2022-11-02T21:44:07.882Z,12.20
2022-11-02T21:46:35.861Z,11.80
2022-11-02T21:49:03.189Z,11.90
2022-11-02T21:51:30.668Z,11.73
2022-11-02T21:53:57.982Z,10.93
2022-11-02T21:56:27.724Z,10.53
2022-11-02T21:58:56.337Z,12.30
2022-11-02T22:01:49.806Z,12.20
2022-11-02T22:04:25.530Z,18.47
2022-11-02T22:06:52.916Z,16.53
2022-11-02T22:09:20.202Z,16.90
2022-11-02T22:11:47.891Z,19.77
2022-11-02T22:14:14.965Z,22.20
2022-11-02T22:16:43.756Z,19.07
2022-11-02T22:19:15.478Z,19.50
2022-11-02T22:21:45.232Z,13.97
2022-11-02T22:24:12.917Z,12.97
2022-11-02T22:26:40.641Z,13.27
2022-11-02T22:29:08.952Z,16.67
2022-11-02T22:31:40.267Z,20.70
2022-11-02T22:34:10.782Z,21.50
2022-11-02T22:36:44.129Z,22.63
2022-11-02T22:39:13.983Z,18.47
2022-11-02T22:41:48.278Z,20.77
2022-11-02T22:44:17.386Z,26.10
2022-11-02T22:46:47.852Z,19.23
2022-11-02T22:49:17.230Z,19.80
2022-11-02T22:51:52.926Z,23.80
2022-11-02T22:54:20.710Z,17.00
2022-11-02T22:56:48.989Z,15.43
2022-11-02T22:59:16.757Z,19.23
2022-11-02T23:01:44.033Z,18.27
2022-11-02T23:04:12.509Z,19.87
2022-11-02T23:06:39.861Z,21.33
2022-11-02T23:09:07.446Z,23.13
2022-11-02T23:11:37.404Z,21.53
2022-11-02T23:14:05.861Z,22.53
2022-11-02T23:16:37.392Z,18.47
2022-11-02T23:19:28.908Z,21.07
2022-11-02T23:22:24.037Z,20.23
2022-11-02T23:25:11.424Z,16.97
2022-11-02T23:28:27.488Z,18.13
2022-11-02T23:31:13.996Z,20.20
2022-11-02T23:33:41.685Z,18.97
2022-11-02T23:36:13.366Z,23.10
2022-11-02T23:39:04.520Z,18.50
2022-11-02T23:41:34.186Z,18.33
2022-11-02T23:44:16.500Z,19.73
2022-11-02T23:46:48.788Z,18.97
2022-11-02T23:49:19.587Z,22.87
2022-11-02T23:52:05.053Z,22.50
2022-11-02T23:54:50.718Z,16.33
2022-11-02T23:57:18.899Z,21.07
2022-11-02T23:59:45.891Z,19.03
